createdAt,value
2017-07-23T19:22:13.853Z,25.23
2017-07-23T19:23:22.784Z,24.84
2017-07-23T19:37:25.702Z,24.12
2017-07-23T19:38:35.188Z,24.18
2017-07-23T19:39:44.647Z,24.2
2017-07-23T19:40:53.545Z,24.33
2017-07-23T19:42:02.769Z,24.48
2017-07-23T19:43:11.686Z,24.67
2017-07-23T19:44:20.605Z,24.81
2017-07-23T19:45:29.504Z,24.98
2017-07-23T19:46:38.402Z,25.13
2017-07-23T19:47:47.301Z,25.11
2017-07-23T19:48:56.205Z,25.17
2017-07-23T19:50:05.138Z,25.28
2017-07-23T19:51:14.060Z,25.35
2017-07-23T19:52:22.964Z,25.43
2017-07-23T19:53:31.862Z,25.48
2017-07-23T19:54:41.412Z,25.57
2017-07-23T19:55:50.313Z,25.55
2017-07-23T19:56:59.254Z,25.63
2017-07-23T19:58:08.159Z,25.55
2017-07-23T19:59:17.394Z,25.63
2017-07-23T20:00:26.292Z,25.6
2017-07-23T20:01:35.195Z,25.66
2017-07-23T20:02:44.096Z,25.75
2017-07-23T20:03:53.008Z,25.7
2017-07-23T20:05:01.916Z,25.72
2017-07-23T20:06:10.827Z,25.79
2017-07-23T20:07:19.738Z,25.73
2017-07-23T20:08:28.644Z,25.72
2017-07-23T20:09:37.554Z,25.72
2017-07-23T20:10:46.460Z,25.85
2017-07-23T20:11:55.425Z,25.87
2017-07-23T20:13:04.323Z,25.84
2017-07-23T20:14:13.231Z,25.88
2017-07-23T20:15:22.126Z,25.84
2017-07-23T20:16:31.034Z,25.85
2017-07-23T20:17:39.968Z,25.83
2017-07-23T20:18:48.884Z,25.98
2017-07-23T20:19:58.125Z,25.88
2017-07-23T20:21:07.033Z,25.87
2017-07-23T20:22:15.933Z,25.92
2017-07-23T20:23:24.841Z,25.88
2017-07-23T20:24:33.746Z,25.95
2017-07-23T20:25:42.982Z,25.87
2017-07-23T20:26:51.897Z,25.87
2017-07-23T20:28:00.797Z,25.85
2017-07-23T20:29:09.697Z,25.91
2017-07-23T20:30:18.600Z,25.95
2017-07-23T20:31:27.512Z,25.94
2017-07-23T20:32:36.421Z,25.97
2017-07-23T20:33:45.338Z,25.95
2017-07-23T20:34:54.254Z,25.94
2017-07-23T20:36:03.155Z,25.95
2017-07-23T20:37:12.069Z,25.97
2017-07-23T20:38:20.974Z,26.02
2017-07-23T20:39:29.887Z,26.02
2017-07-23T20:40:38.793Z,25.94
2017-07-23T20:41:47.696Z,25.97
2017-07-23T20:42:56.598Z,25.94
2017-07-23T20:44:05.525Z,25.97
2017-07-23T20:45:14.760Z,26
2017-07-23T20:46:23.662Z,26.02
2017-07-23T20:47:32.575Z,25.98
2017-07-23T20:48:41.480Z,25.94
2017-07-23T20:49:50.383Z,26.05
2017-07-23T20:50:59.285Z,26
2017-07-23T20:52:10.343Z,25.97
2017-07-23T20:53:19.561Z,25.91
2017-07-23T20:54:28.476Z,25.9
2017-07-23T20:55:37.386Z,25.9
2017-07-23T20:56:46.343Z,25.83
2017-07-23T20:57:55.245Z,25.9
2017-07-23T20:59:04.188Z,25.88
2017-07-23T21:00:13.086Z,25.88
2017-07-23T21:01:21.988Z,25.84
2017-07-23T21:02:30.892Z,25.97
2017-07-23T21:03:39.796Z,25.91
2017-07-23T21:04:48.717Z,25.84
2017-07-23T21:05:57.624Z,25.83
2017-07-23T21:07:06.526Z,25.85
2017-07-23T21:08:15.431Z,25.9
2017-07-23T21:09:24.652Z,25.9
2017-07-23T21:10:33.892Z,25.9
2017-07-23T21:11:42.803Z,25.83
2017-07-23T21:12:51.711Z,25.85
2017-07-23T21:14:00.614Z,25.85
2017-07-23T21:15:09.837Z,25.85
2017-07-23T21:16:19.006Z,25.79
2017-07-23T21:17:28.225Z,25.73
2017-07-23T21:18:37.134Z,25.85
2017-07-23T21:19:46.055Z,25.84
2017-07-23T21:20:54.961Z,25.8
2017-07-23T21:22:03.880Z,25.76
2017-07-23T21:23:12.785Z,25.8
2017-07-23T21:24:21.696Z,25.92
2017-07-23T21:25:30.615Z,25.8
2017-07-23T21:26:39.532Z,25.84
2017-07-23T21:27:48.442Z,25.8
2017-07-23T21:28:57.346Z,25.85
2017-07-23T21:30:06.246Z,25.88
2017-07-23T21:31:15.164Z,25.85
2017-07-23T21:32:24.064Z,25.78
2017-07-23T21:33:32.982Z,25.8
2017-07-23T21:34:41.891Z,25.78
2017-07-23T21:35:50.795Z,25.91
2017-07-23T21:36:59.703Z,25.79
2017-07-23T21:38:08.606Z,25.78
2017-07-23T21:39:17.521Z,25.75
2017-07-23T21:40:26.436Z,25.73
2017-07-23T21:41:35.359Z,25.76
2017-07-23T21:42:44.260Z,25.69
2017-07-23T21:43:53.467Z,25.72
2017-07-23T21:45:02.379Z,25.75
2017-07-23T21:46:11.636Z,25.76
2017-07-23T21:47:20.554Z,25.78
2017-07-23T21:48:29.453Z,25.73
2017-07-23T21:49:38.361Z,25.75
2017-07-23T21:50:47.258Z,25.76
2017-07-23T21:51:56.162Z,25.73
2017-07-23T21:53:05.063Z,25.75
2017-07-23T21:54:13.966Z,25.78
2017-07-23T21:55:22.874Z,25.68
2017-07-23T21:56:31.780Z,25.72
2017-07-23T21:57:40.680Z,25.79
2017-07-23T21:58:49.587Z,25.72
2017-07-23T21:59:58.500Z,25.76
2017-07-23T22:01:07.413Z,25.79
2017-07-23T22:02:16.319Z,25.79
2017-07-23T22:03:25.543Z,25.76
2017-07-23T22:04:34.454Z,25.73
2017-07-23T22:05:43.360Z,25.73
2017-07-23T22:06:52.266Z,25.76
2017-07-23T22:08:01.177Z,25.72
2017-07-23T22:09:10.094Z,25.84
2017-07-23T22:10:18.994Z,25.75
2017-07-23T22:11:27.900Z,25.78
2017-07-23T22:12:36.797Z,25.76
2017-07-23T22:13:45.698Z,25.76
2017-07-23T22:14:54.596Z,25.79
2017-07-23T22:16:03.517Z,25.76
2017-07-23T22:17:12.426Z,25.73
2017-07-23T22:18:21.354Z,25.88
2017-07-23T22:19:30.255Z,25.9
2017-07-23T22:20:39.189Z,25.9
2017-07-23T22:21:50.180Z,25.84
2017-07-23T22:23:00.982Z,25.88
2017-07-23T22:24:11.478Z,25.84
2017-07-23T22:25:20.703Z,25.97
2017-07-23T22:26:29.606Z,26.03
2017-07-23T22:27:38.506Z,26
2017-07-23T22:28:48.059Z,26.09
2017-07-23T22:29:57.151Z,26.09
2017-07-23T22:31:06.102Z,25.98
2017-07-23T22:32:15.039Z,26.05
2017-07-23T22:33:23.939Z,25.98
2017-07-23T22:34:33.181Z,26.1
2017-07-23T22:35:42.185Z,26.05
2017-07-23T22:36:51.559Z,26.09
2017-07-23T22:38:00.467Z,26.09
2017-07-23T22:39:09.696Z,26.18
2017-07-23T22:40:18.619Z,26.16
2017-07-23T22:41:27.532Z,26.16
2017-07-23T22:42:39.033Z,26.12
2017-07-23T22:43:47.968Z,26.22
2017-07-23T22:44:57.316Z,26.17
2017-07-23T22:46:07.898Z,26.21
2017-07-23T22:47:17.845Z,26.13
2017-07-23T22:48:27.102Z,26.26
2017-07-23T22:49:37.467Z,26.18
2017-07-23T22:50:46.378Z,26.28
2017-07-23T22:51:55.306Z,26.26
2017-07-23T22:53:04.209Z,26.26
2017-07-23T22:54:13.122Z,26.29
2017-07-23T22:55:22.035Z,26.29
2017-07-23T22:56:30.946Z,26.35
2017-07-23T22:57:39.856Z,26.26
2017-07-23T22:58:48.755Z,26.28
2017-07-23T22:59:57.662Z,26.31
2017-07-23T23:01:06.607Z,26.32
2017-07-23T23:02:15.836Z,26.38
2017-07-23T23:03:24.748Z,26.38
2017-07-23T23:04:33.794Z,26.33
2017-07-23T23:05:42.694Z,26.35
2017-07-23T23:06:51.608Z,26.36
2017-07-23T23:08:00.520Z,26.35
2017-07-23T23:09:09.446Z,26.44
2017-07-23T23:10:18.357Z,26.5
2017-07-23T23:11:27.259Z,26.38
2017-07-23T23:12:36.178Z,26.44
2017-07-23T23:13:45.082Z,26.44
2017-07-23T23:14:53.987Z,26.35
2017-07-23T23:16:02.899Z,26.47
2017-07-23T23:17:11.805Z,26.33
2017-07-23T23:18:20.777Z,26.4
2017-07-23T23:19:29.694Z,26.43
2017-07-23T23:20:38.689Z,26.35
2017-07-23T23:21:47.795Z,26.4
2017-07-23T23:22:56.996Z,26.41
2017-07-23T23:24:05.903Z,26.48
2017-07-23T23:25:14.804Z,26.36
2017-07-23T23:26:23.757Z,26.35
2017-07-23T23:27:32.993Z,26.35
2017-07-23T23:28:41.891Z,26.48
2017-07-23T23:29:50.795Z,26.43
2017-07-23T23:30:59.697Z,26.35
2017-07-23T23:32:08.614Z,26.48
2017-07-23T23:33:17.516Z,26.33
2017-07-23T23:34:26.429Z,26.38
2017-07-23T23:35:35.328Z,26.51
2017-07-23T23:36:44.232Z,26.47
2017-07-23T23:37:53.131Z,26.45
2017-07-23T23:39:02.039Z,26.43
2017-07-23T23:40:11.277Z,26.31
2017-07-23T23:41:20.205Z,26.48
2017-07-23T23:42:29.134Z,26.43
2017-07-23T23:43:38.040Z,26.4
2017-07-23T23:44:46.943Z,26.4
2017-07-23T23:45:55.843Z,26.41
2017-07-23T23:47:04.877Z,26.44
2017-07-23T23:48:13.785Z,26.45
2017-07-23T23:49:22.689Z,26.55
2017-07-23T23:50:31.589Z,26.53
2017-07-23T23:51:40.496Z,26.44
2017-07-23T23:52:49.411Z,26.44
2017-07-23T23:53:58.319Z,26.44
2017-07-23T23:55:07.221Z,26.41
2017-07-23T23:56:16.127Z,26.44
2017-07-23T23:57:25.039Z,26.43
2017-07-23T23:58:34.195Z,26.4
2017-07-23T23:59:43.094Z,26.43
